AWE782 KPIT-EDDF
Flight info
| Callsign | AWE782 |
|---|---|
| Flight time | N/A |
| Altitude | 37000 |
| Route | EWC DCT ZORBO DCT SYR DCT CABCI DCT MIILS N155A PORTI/M082F370 DCT 47N050W 49N040W 51N030W 52N020W DCT LIMRI/N0469F370 DCT XETBO/N0470F390 DCT KURUM DCT TISMO DCT ENJEX DCT ADHAV DCT AGCAT DCT AXNEF DCT ZIPWE DCT OZZIL DCT SAWPE Q63 CPT UL9 BIG L607 KONAN UL607 SPI T180 NIVNU T847 IMCOM IMCOM1A |
| Aircraft | A333/H-SDE3GHIJ2J3J5M1RVWXY/LB2D1 |
Departure
| Time | 2026-05-05 01:52 |
|---|---|
| Airport | Pittsburgh International Airport (KPIT) |
Arrival
| Time | N/A |
|---|---|
| Airport | Frankfurt Main Airport (EDDF) |
| Time | Latitude | Longitude | Altitude | Speed | Heading |
|---|---|---|---|---|---|
| 2026-05-05 01:05 | 40.49331 | -80.24905 | 1220 ft | 0 kts | 73° |
| 2026-05-05 01:34 | 40.49330 | -80.24908 | 1220 ft | 1 kts | 73° |
| 2026-05-05 01:35 | 40.49326 | -80.24927 | 1220 ft | 3 kts | 73° |
| 2026-05-05 01:35 | 40.49319 | -80.24951 | 1220 ft | 3 kts | 58° |
| 2026-05-05 01:35 | 40.49305 | -80.24971 | 1220 ft | 3 kts | 33° |
| 2026-05-05 01:35 | 40.49286 | -80.24981 | 1220 ft | 3 kts | 9° |
| 2026-05-05 01:36 | 40.49272 | -80.24982 | 1220 ft | 0 kts | 354° |
| 2026-05-05 01:41 | 40.49276 | -80.24983 | 1220 ft | 2 kts | 347° |
| 2026-05-05 01:42 | 40.49287 | -80.24993 | 1220 ft | 2 kts | 322° |
| 2026-05-05 01:42 | 40.49298 | -80.25004 | 1220 ft | 3 kts | 320° |
| 2026-05-05 01:42 | 40.49324 | -80.25033 | 1220 ft | 7 kts | 319° |
| 2026-05-05 01:42 | 40.49374 | -80.25090 | 1220 ft | 12 kts | 318° |
| 2026-05-05 01:43 | 40.49430 | -80.25149 | 1220 ft | 12 kts | 301° |
| 2026-05-05 01:43 | 40.49423 | -80.25235 | 1220 ft | 10 kts | 209° |
| 2026-05-05 01:43 | 40.49333 | -80.25244 | 1220 ft | 17 kts | 182° |
| 2026-05-05 01:43 | 40.49210 | -80.25251 | 1220 ft | 18 kts | 182° |
| 2026-05-05 01:44 | 40.49102 | -80.25214 | 1220 ft | 17 kts | 104° |
| 2026-05-05 01:44 | 40.49096 | -80.25072 | 1220 ft | 15 kts | 95° |
| 2026-05-05 01:44 | 40.49095 | -80.24948 | 1220 ft | 13 kts | 76° |
| 2026-05-05 01:44 | 40.49146 | -80.24874 | 1220 ft | 11 kts | 56° |
| 2026-05-05 01:45 | 40.49155 | -80.24787 | 1220 ft | 9 kts | 91° |
| 2026-05-05 01:45 | 40.49154 | -80.24712 | 1220 ft | 8 kts | 91° |
| 2026-05-05 01:45 | 40.49153 | -80.24646 | 1220 ft | 8 kts | 91° |
| 2026-05-05 01:45 | 40.49150 | -80.24544 | 1220 ft | 15 kts | 91° |
| 2026-05-05 01:46 | 40.49146 | -80.24377 | 1220 ft | 20 kts | 95° |
| 2026-05-05 01:46 | 40.49140 | -80.24173 | 1220 ft | 23 kts | 92° |
| 2026-05-05 01:46 | 40.49134 | -80.23988 | 1220 ft | 13 kts | 93° |
| 2026-05-05 01:46 | 40.49163 | -80.23911 | 1220 ft | 9 kts | 26° |
| 2026-05-05 01:47 | 40.49231 | -80.23897 | 1220 ft | 12 kts | 2° |
| 2026-05-05 01:47 | 40.49328 | -80.23892 | 1220 ft | 16 kts | 2° |
| 2026-05-05 01:47 | 40.49456 | -80.23887 | 1220 ft | 19 kts | 1° |
| 2026-05-05 01:47 | 40.49579 | -80.23883 | 1220 ft | 17 kts | 1° |
| 2026-05-05 01:48 | 40.49686 | -80.23878 | 1220 ft | 14 kts | 2° |
| 2026-05-05 01:48 | 40.49776 | -80.23873 | 1220 ft | 13 kts | 2° |
| 2026-05-05 01:48 | 40.49878 | -80.23867 | 1220 ft | 14 kts | 4° |
| 2026-05-05 01:48 | 40.49921 | -80.23802 | 1220 ft | 10 kts | 91° |
| 2026-05-05 01:49 | 40.49920 | -80.23717 | 1220 ft | 9 kts | 91° |
| 2026-05-05 01:49 | 40.49919 | -80.23638 | 1220 ft | 9 kts | 91° |
| 2026-05-05 01:49 | 40.49922 | -80.23552 | 1220 ft | 10 kts | 81° |
| 2026-05-05 01:49 | 40.49939 | -80.23461 | 1220 ft | 11 kts | 71° |
| 2026-05-05 01:50 | 40.49978 | -80.23380 | 1220 ft | 10 kts | 34° |
| 2026-05-05 01:50 | 40.50043 | -80.23363 | 1220 ft | 9 kts | 3° |
| 2026-05-05 01:50 | 40.50097 | -80.23359 | 1220 ft | 7 kts | 3° |
| 2026-05-05 01:50 | 40.50134 | -80.23383 | 1220 ft | 6 kts | 296° |
| 2026-05-05 01:51 | 40.50138 | -80.23437 | 1220 ft | 6 kts | 271° |
| 2026-05-05 01:51 | 40.50139 | -80.23533 | 1220 ft | 27 kts | 271° |
| 2026-05-05 01:51 | 40.50152 | -80.24003 | 1220 ft | 75 kts | 272° |
| 2026-05-05 01:51 | 40.50176 | -80.24893 | 1220 ft | 119 kts | 271° |
| 2026-05-05 01:52 | 40.50212 | -80.26169 | 1242 ft | 156 kts | 272° |
| 2026-05-05 01:52 | 40.50443 | -80.27578 | 1613 ft | 164 kts | 298° |
| 2026-05-05 01:52 | 40.51296 | -80.28610 | 1993 ft | 175 kts | 335° |
| 2026-05-05 01:52 | 40.52495 | -80.28996 | 2393 ft | 182 kts | 350° |
| 2026-05-05 01:53 | 40.53835 | -80.29246 | 2549 ft | 209 kts | 350° |
| 2026-05-05 01:53 | 40.55381 | -80.29520 | 2639 ft | 240 kts | 350° |
| 2026-05-05 01:53 | 40.57147 | -80.29790 | 2784 ft | 269 kts | 350° |
| 2026-05-05 01:53 | 40.59016 | -80.30048 | 3459 ft | 270 kts | 350° |
| 2026-05-05 01:54 | 40.60903 | -80.30274 | 4095 ft | 275 kts | 350° |
| 2026-05-05 01:54 | 40.62827 | -80.30460 | 4752 ft | 280 kts | 352° |
| 2026-05-05 01:54 | 40.64789 | -80.30032 | 5365 ft | 294 kts | 14° |
| 2026-05-05 01:54 | 40.66723 | -80.29082 | 5973 ft | 300 kts | 15° |
| 2026-05-05 01:55 | 40.68688 | -80.28099 | 6607 ft | 302 kts | 14° |
| 2026-05-05 01:55 | 40.70649 | -80.27118 | 7309 ft | 303 kts | 14° |
| 2026-05-05 01:55 | 40.72634 | -80.26124 | 7924 ft | 306 kts | 14° |
| 2026-05-05 01:55 | 40.74631 | -80.25121 | 8581 ft | 307 kts | 14° |
| 2026-05-05 01:56 | 40.76643 | -80.24108 | 9189 ft | 310 kts | 14° |
| 2026-05-05 01:56 | 40.78646 | -80.23099 | 9892 ft | 308 kts | 14° |
| 2026-05-05 01:56 | 40.80666 | -80.22032 | 10336 ft | 322 kts | 19° |
| 2026-05-05 01:56 | 40.82692 | -80.20520 | 10421 ft | 349 kts | 30° |
| 2026-05-05 01:57 | 40.84653 | -80.18435 | 10510 ft | 374 kts | 37° |
| 2026-05-05 01:57 | 40.86664 | -80.16109 | 10599 ft | 395 kts | 37° |
| 2026-05-05 01:57 | 40.88739 | -80.13680 | 11154 ft | 398 kts | 38° |
| 2026-05-05 01:57 | 40.90803 | -80.11248 | 11916 ft | 399 kts | 38° |
| 2026-05-05 01:58 | 40.92882 | -80.08791 | 12534 ft | 402 kts | 38° |
| 2026-05-05 01:58 | 40.94970 | -80.06322 | 13172 ft | 404 kts | 38° |
| 2026-05-05 01:58 | 40.97075 | -80.03824 | 13740 ft | 408 kts | 38° |
| 2026-05-05 01:58 | 40.99193 | -80.01310 | 14365 ft | 410 kts | 38° |
| 2026-05-05 01:59 | 41.01322 | -79.98781 | 14939 ft | 413 kts | 38° |
| 2026-05-05 01:59 | 41.03460 | -79.96236 | 15560 ft | 415 kts | 38° |
| 2026-05-05 01:59 | 41.05619 | -79.93663 | 16062 ft | 419 kts | 38° |
| 2026-05-05 01:59 | 41.07788 | -79.91076 | 16618 ft | 421 kts | 38° |
| 2026-05-05 02:00 | 41.09978 | -79.88461 | 17149 ft | 425 kts | 38° |
| 2026-05-05 02:00 | 41.12177 | -79.85832 | 17682 ft | 427 kts | 39° |
| 2026-05-05 02:00 | 41.14389 | -79.83187 | 18191 ft | 430 kts | 39° |
| 2026-05-05 02:00 | 41.16621 | -79.80515 | 18679 ft | 433 kts | 39° |